Time;durP1;ratioP1;P1;durP2;ratioP2;P2;SDS_P1;SDS_P2;PMS_P1;PMS_P2;Temp;Humidity;BMP_temperature;BMP_pressure;BME280_temperature;BME280_humidity;BME280_pressure;Samples;Min_cycle;Max_cycle;Signal;HPM_P1;HPM_P2
2022/08/02 00:01:52;;;;;;;1.40;1.20;;;;;;;17.79;79.13;98884.72;5002418;28;20243;-60
2022/08/02 00:04:19;;;;;;;1.57;1.30;;;;;;;17.75;80.03;98883.47;5012539;28;20237;-60
2022/08/02 00:06:46;;;;;;;2.30;1.43;;;;;;;17.73;79.64;98882.00;5011685;28;20751;-60
2022/08/02 00:09:13;;;;;;;4.30;1.40;;;;;;;17.69;80.26;98869.19;5012210;28;20225;-60
2022/08/02 00:11:42;;;;;;;3.23;1.30;;;;;;;17.66;80.85;98869.56;5011832;28;20873;-60
2022/08/02 00:14:09;;;;;;;1.30;1.20;;;;;;;17.60;80.31;98875.59;5012781;28;20223;-61
2022/08/02 00:16:35;;;;;;;2.70;1.17;;;;;;;17.59;81.00;98875.81;5010961;28;20668;-60
2022/08/02 00:19:03;;;;;;;3.77;1.10;;;;;;;17.64;80.77;98878.69;5012580;28;20219;-61
2022/08/02 00:21:30;;;;;;;1.93;1.40;;;;;;;17.59;80.81;98879.25;5012383;28;20197;-61
2022/08/02 00:23:57;;;;;;;2.50;1.30;;;;;;;17.56;80.40;98875.19;5012190;28;20214;-60
2022/08/02 00:26:24;;;;;;;2.90;1.10;;;;;;;17.59;81.54;98878.44;5011963;28;20215;-61
2022/08/02 00:28:52;;;;;;;4.13;1.17;;;;;;;17.56;81.64;98874.34;5009672;28;20213;-59
2022/08/02 00:31:19;;;;;;;1.87;1.47;;;;;;;17.55;81.25;98870.91;5010397;28;20526;-61
2022/08/02 00:33:45;;;;;;;1.53;1.10;;;;;;;17.54;81.15;98873.72;5008593;28;20212;-60
2022/08/02 00:36:12;;;;;;;2.60;1.00;;;;;;;17.47;81.06;98875.53;5010961;28;20274;-60
2022/08/02 00:38:39;;;;;;;1.83;1.10;;;;;;;17.40;81.58;98883.34;5011389;28;20655;-60
2022/08/02 00:41:12;;;;;;;1.70;1.13;;;;;;;17.35;82.17;98875.19;5010235;28;20217;-60
2022/08/02 00:43:38;;;;;;;1.50;1.27;;;;;;;17.37;82.86;98881.94;5009739;28;20197;-60
2022/08/02 00:46:06;;;;;;;5.00;1.40;;;;;;;17.36;82.53;98890.00;5012383;28;20624;-60
2022/08/02 00:48:33;;;;;;;4.73;1.40;;;;;;;17.31;82.78;98889.75;5009041;28;20229;-60
2022/08/02 00:51:00;;;;;;;3.37;1.13;;;;;;;17.29;82.95;98891.78;5012596;28;20194;-60
2022/08/02 00:53:27;;;;;;;1.90;1.10;;;;;;;17.26;83.28;98896.41;5012156;28;20212;-60
2022/08/02 00:55:54;;;;;;;1.33;1.17;;;;;;;17.26;83.25;98901.69;5011604;28;20544;-60
2022/08/02 00:58:21;;;;;;;4.10;1.10;;;;;;;17.23;83.99;98899.44;5012678;28;20583;-60
2022/08/02 01:00:48;;;;;;;2.60;1.50;;;;;;;17.23;83.77;98901.25;5012739;28;20545;-60
2022/08/02 01:03:16;;;;;;;2.60;1.10;;;;;;;17.20;83.71;98901.63;5012484;28;20191;-60
2022/08/02 01:05:43;;;;;;;3.20;1.20;;;;;;;17.19;83.30;98900.81;5009310;28;20188;-60
2022/08/02 01:08:10;;;;;;;2.70;1.27;;;;;;;17.27;83.55;98911.25;4994451;28;20580;-60
2022/08/02 01:10:37;;;;;;;2.67;1.30;;;;;;;17.32;83.74;98915.97;5011321;28;20660;-60
2022/08/02 01:13:04;;;;;;;2.87;1.10;;;;;;;17.39;83.38;98906.31;5011903;28;20208;-60
2022/08/02 01:15:31;;;;;;;2.00;1.20;;;;;;;17.53;83.31;98911.69;5009974;28;20198;-60
2022/08/02 01:18:05;;;;;;;2.13;1.40;;;;;;;17.58;83.22;98911.94;5012429;28;20198;-60
2022/08/02 01:21:00;;;;;;;2.57;1.30;;;;;;;17.62;82.92;98909.75;4989251;28;20215;-60
2022/08/02 01:23:44;;;;;;;1.77;1.20;;;;;;;17.74;82.97;98912.69;4993983;28;20190;-60
2022/08/02 01:26:35;;;;;;;2.27;1.23;;;;;;;17.83;82.63;98900.97;4991556;28;20200;-60
2022/08/02 01:29:08;;;;;;;2.47;1.50;;;;;;;17.85;82.43;98904.25;4988352;28;20231;-61
2022/08/02 01:31:40;;;;;;;2.50;1.13;;;;;;;17.90;82.17;98907.13;4994348;28;20194;-61
2022/08/02 01:34:15;;;;;;;2.30;1.43;;;;;;;17.97;81.80;98904.56;4990573;28;20201;-61
2022/08/02 01:36:46;;;;;;;1.67;0.90;;;;;;;18.00;81.77;98909.47;4993489;28;20242;-60
2022/08/02 01:39:17;;;;;;;2.57;1.20;;;;;;;18.00;81.72;98906.84;4993726;28;20336;-60
2022/08/02 01:41:45;;;;;;;1.20;1.10;;;;;;;17.94;81.68;98904.94;4990553;28;20196;-60
2022/08/02 01:44:16;;;;;;;1.30;1.20;;;;;;;17.91;81.95;98898.19;4990198;28;20205;-60
2022/08/02 01:46:44;;;;;;;1.40;1.27;;;;;;;17.90;81.65;98898.41;4988112;28;20210;-60
2022/08/02 01:49:17;;;;;;;1.20;1.10;;;;;;;17.88;81.96;98897.78;4988297;28;20736;-60
2022/08/02 01:54:34;;;;;;;3.60;1.20;;;;;;;17.79;82.33;98897.09;4993608;28;20203;-61
2022/08/02 01:57:03;;;;;;;4.33;1.23;;;;;;;17.83;81.72;98890.41;4991804;28;20223;-61
2022/08/02 01:59:33;;;;;;;1.63;1.00;;;;;;;17.79;81.43;98892.63;4989263;28;20221;-61
2022/08/02 02:02:01;;;;;;;6.40;1.07;;;;;;;17.71;82.68;98883.00;4987782;28;20664;-61
2022/08/02 02:04:31;;;;;;;2.70;1.13;;;;;;;17.70;82.68;98891.13;4988101;28;20713;-61
2022/08/02 02:07:00;;;;;;;2.10;1.30;;;;;;;17.56;83.18;98888.38;4993727;28;20225;-61
2022/08/02 02:09:30;;;;;;;3.23;1.37;;;;;;;17.45;83.48;98880.97;4992171;28;20260;-60
2022/08/02 02:11:59;;;;;;;2.00;1.20;;;;;;;17.35;83.63;98883.94;4989632;28;20198;-60
2022/08/02 02:14:27;;;;;;;1.50;1.30;;;;;;;17.24;84.02;98884.44;4992900;28;20683;-60
2022/08/02 02:16:58;;;;;;;2.47;1.80;;;;;;;17.16;84.71;98882.72;4988922;28;20693;-60
2022/08/02 02:19:26;;;;;;;3.20;1.40;;;;;;;17.12;85.67;98886.72;4987758;28;20232;-60
2022/08/02 02:21:53;;;;;;;3.57;1.33;;;;;;;17.10;85.39;98883.47;4990091;28;20204;-60
2022/08/02 02:24:19;;;;;;;4.00;1.30;;;;;;;17.05;85.70;98891.13;4991826;28;20213;-60
2022/08/02 02:26:47;;;;;;;5.07;1.50;;;;;;;17.02;86.08;98873.03;4988129;28;20260;-60
2022/08/02 02:29:16;;;;;;;2.10;1.30;;;;;;;16.97;85.96;98865.69;4987279;28;20208;-60
2022/08/02 02:31:46;;;;;;;2.77;1.40;;;;;;;16.92;86.20;98866.22;4990965;28;20218;-60
2022/08/02 02:34:17;;;;;;;3.57;1.40;;;;;;;16.94;86.76;98856.31;4996846;28;20218;-60
2022/08/02 02:36:49;;;;;;;2.53;1.77;;;;;;;16.85;86.81;98865.34;5007248;28;20281;-60
2022/08/02 02:39:20;;;;;;;2.27;1.17;;;;;;;16.83;86.70;98852.31;4990744;28;20247;-60
2022/08/02 02:41:47;;;;;;;1.30;1.20;;;;;;;16.86;87.52;98860.88;4991084;28;20855;-60
2022/08/02 02:44:19;;;;;;;3.50;1.90;;;;;;;16.83;88.00;98856.81;4989318;28;21269;-60
2022/08/02 02:46:47;;;;;;;1.50;1.30;;;;;;;16.91;87.74;98850.59;4988266;28;20268;-60
2022/08/02 02:49:17;;;;;;;3.77;1.50;;;;;;;16.91;87.87;98855.84;4990017;28;20279;-60
2022/08/02 02:51:45;;;;;;;3.10;1.20;;;;;;;16.90;87.37;98864.78;4991539;28;20642;-60
2022/08/02 02:54:12;;;;;;;1.77;1.10;;;;;;;16.86;87.66;98860.88;4992407;28;20216;-60
2022/08/02 02:56:40;;;;;;;4.67;1.43;;;;;;;16.88;87.64;98870.25;4990626;28;20197;-60
2022/08/02 02:59:08;;;;;;;5.03;1.40;;;;;;;16.88;87.47;98872.88;4990927;28;20235;-60
2022/08/02 03:01:36;;;;;;;2.37;1.67;;;;;;;16.96;87.22;98878.03;4991558;28;20203;-61
2022/08/02 03:04:06;;;;;;;1.83;1.50;;;;;;;16.96;87.35;98877.22;4993055;28;20206;-61
2022/08/02 03:06:36;;;;;;;2.60;1.57;;;;;;;16.94;87.33;98885.31;4991101;28;20266;-61
2022/08/02 03:09:03;;;;;;;1.93;1.17;;;;;;;16.86;87.36;98877.53;4991305;28;20227;-61
2022/08/02 03:11:31;;;;;;;4.70;1.50;;;;;;;16.81;88.09;98882.53;4991342;28;20571;-61
2022/08/02 03:13:59;;;;;;;1.77;1.20;;;;;;;16.79;87.74;98874.78;4979000;28;20762;-60
2022/08/02 03:16:27;;;;;;;3.50;1.30;;;;;;;16.72;87.70;98876.53;4994992;28;20704;-60
2022/08/02 03:18:54;;;;;;;4.90;1.53;;;;;;;16.62;88.00;98876.84;4995899;28;21648;-60
2022/08/02 03:21:22;;;;;;;1.80;1.30;;;;;;;16.61;88.65;98874.38;4991491;28;20204;-61
2022/08/02 03:23:50;;;;;;;3.27;1.40;;;;;;;16.59;89.18;98882.47;4992138;28;20681;-61
2022/08/02 03:26:17;;;;;;;4.17;1.20;;;;;;;16.51;89.64;98885.19;4998585;28;20657;-60
2022/08/02 03:28:44;;;;;;;2.67;1.50;;;;;;;16.44;88.96;98881.66;4994458;28;20789;-60
2022/08/02 03:31:11;;;;;;;1.73;1.20;;;;;;;16.43;89.21;98886.09;4991500;28;20193;-60
2022/08/02 03:33:39;;;;;;;2.57;1.33;;;;;;;16.40;89.62;98886.50;4993367;28;20230;-60
2022/08/02 03:36:09;;;;;;;4.53;2.17;;;;;;;16.41;90.20;98879.38;4999981;28;20205;-60
2022/08/02 03:38:37;;;;;;;1.37;1.23;;;;;;;16.38;90.41;98885.84;4996019;28;20214;-60
2022/08/02 03:41:05;;;;;;;4.17;1.83;;;;;;;16.34;90.54;98884.59;4991120;28;20195;-60
2022/08/02 03:43:33;;;;;;;1.77;1.43;;;;;;;16.38;91.14;98891.94;4993208;28;20628;-60
2022/08/02 03:46:01;;;;;;;1.50;1.40;;;;;;;16.30;91.37;98889.38;4992496;28;20195;-60
2022/08/02 03:48:29;;;;;;;3.50;1.40;;;;;;;16.23;91.33;98891.09;4991641;28;20219;-60
2022/08/02 03:50:56;;;;;;;1.53;1.30;;;;;;;16.23;91.59;98888.47;4994649;28;20199;-60
2022/08/02 03:53:24;;;;;;;1.97;1.43;;;;;;;16.22;91.31;98887.66;4991089;28;20211;-60
2022/08/02 03:55:52;;;;;;;4.17;1.37;;;;;;;16.26;92.05;98874.94;4991367;28;20295;-60
2022/08/02 03:58:21;;;;;;;1.80;1.53;;;;;;;16.32;91.61;98879.47;5007632;28;20361;-60
2022/08/02 04:00:48;;;;;;;2.77;1.67;;;;;;;16.23;91.49;98876.13;4993448;28;20275;-61
2022/08/02 04:03:15;;;;;;;5.60;1.60;;;;;;;16.26;91.86;98880.19;4995947;28;20194;-60
2022/08/02 04:05:42;;;;;;;4.57;1.33;;;;;;;16.26;92.19;98880.19;4999177;28;20210;-60
2022/08/02 04:08:08;;;;;;;3.73;1.40;;;;;;;16.26;92.38;98887.31;4995117;28;20225;-60
2022/08/02 04:11:29;;;;;;;1.97;1.53;;;;;;;16.25;92.64;98878.56;4992229;28;20192;-60
2022/08/02 04:13:28;;;;;;;5.80;1.47;;;;;;;16.24;92.45;98876.94;4992198;28;20244;-60
2022/08/02 04:15:59;;;;;;;3.13;1.30;;;;;;;16.25;91.92;98875.13;5002157;28;20237;-60
2022/08/02 04:18:30;;;;;;;2.57;1.60;;;;;;;16.32;92.11;98883.94;4991763;28;20238;-60
2022/08/02 04:20:59;;;;;;;3.73;1.60;;;;;;;16.35;91.53;98884.38;4991866;28;20656;-60
2022/08/02 04:23:29;;;;;;;1.87;1.50;;;;;;;16.40;91.95;98883.03;4992631;28;20199;-60
2022/08/02 04:25:57;;;;;;;2.40;1.50;;;;;;;16.46;91.82;98882.28;5002904;28;20215;-60
2022/08/02 04:28:26;;;;;;;2.40;1.37;;;;;;;16.49;91.46;98890.63;4990323;28;20219;-60
2022/08/02 04:30:54;;;;;;;3.60;1.20;;;;;;;16.56;91.43;98880.19;4991585;28;20213;-60
2022/08/02 04:33:20;;;;;;;3.50;1.43;;;;;;;16.59;91.44;98886.91;4974699;28;20215;-60
2022/08/02 04:35:47;;;;;;;5.13;1.60;;;;;;;16.70;90.62;98889.06;4991840;28;20207;-60
2022/08/02 04:38:15;;;;;;;3.53;1.40;;;;;;;16.72;91.32;98889.72;4991933;28;20227;-60
2022/08/02 04:40:50;;;;;;;2.40;1.40;;;;;;;16.82;90.97;98892.88;4992573;28;20415;-60
2022/08/02 04:43:37;;;;;;;2.57;1.47;;;;;;;16.99;89.90;98886.59;4994395;28;20207;-60
2022/08/02 04:46:03;;;;;;;3.30;1.60;;;;;;;17.10;89.24;98896.66;4991016;28;20191;-60
2022/08/02 04:48:30;;;;;;;4.20;1.60;;;;;;;17.17;89.11;98889.63;4994646;28;20223;-60
2022/08/02 04:50:57;;;;;;;3.27;1.30;;;;;;;17.23;88.60;98888.88;4994753;28;20280;-60
2022/08/02 04:53:25;;;;;;;5.83;1.60;;;;;;;17.34;87.77;98889.38;4989550;28;20226;-60
2022/08/02 04:55:51;;;;;;;2.27;1.50;;;;;;;17.41;88.04;98888.47;4990307;28;20882;-60
2022/08/02 04:58:18;;;;;;;1.83;1.50;;;;;;;17.49;87.90;98874.31;4992659;28;20276;-60
2022/08/02 05:00:46;;;;;;;2.20;1.57;;;;;;;17.60;87.02;98882.72;4995858;28;20240;-60
2022/08/02 05:03:14;;;;;;;3.97;1.50;;;;;;;17.66;86.63;98872.22;4991686;28;20192;-60
2022/08/02 05:05:40;;;;;;;1.77;1.50;;;;;;;17.73;85.96;98874.09;4991524;28;20231;-60
2022/08/02 05:08:07;;;;;;;2.63;1.30;;;;;;;17.83;85.78;98879.84;4991682;28;20858;-61
2022/08/02 05:10:34;;;;;;;2.80;1.37;;;;;;;17.99;84.97;98881.41;4996669;28;20196;-61
2022/08/02 05:13:03;;;;;;;2.20;1.47;;;;;;;18.07;84.95;98881.25;4991853;28;20248;-61
2022/08/02 05:15:30;;;;;;;3.67;1.30;;;;;;;18.21;83.85;98884.00;4992821;28;20538;-60
2022/08/02 05:17:58;;;;;;;3.10;1.50;;;;;;;18.30;83.65;98890.75;4990087;28;20180;-60
2022/08/02 05:20:25;;;;;;;4.30;1.40;;;;;;;18.46;83.10;98892.28;4993418;28;20222;-60
2022/08/02 05:22:51;;;;;;;2.10;1.30;;;;;;;18.61;82.33;98891.31;4993441;28;20195;-60
2022/08/02 05:25:18;;;;;;;2.00;1.53;;;;;;;18.77;82.68;98895.47;4989958;28;20648;-60
2022/08/02 05:27:45;;;;;;;1.40;1.30;;;;;;;18.94;81.72;98890.63;4990105;28;20211;-60
2022/08/02 05:30:12;;;;;;;2.20;1.33;;;;;;;19.13;81.77;98884.59;4992901;28;20197;-60
2022/08/02 05:32:47;;;;;;;2.73;1.43;;;;;;;19.26;80.89;98875.88;4991951;28;20204;-60
2022/08/02 05:35:18;;;;;;;1.60;1.40;;;;;;;19.32;79.39;98880.34;4993890;28;20216;-60
2022/08/02 05:37:45;;;;;;;2.67;1.23;;;;;;;19.37;78.52;98877.13;4990149;28;20223;-60
2022/08/02 05:40:12;;;;;;;4.30;1.57;;;;;;;19.44;78.92;98885.88;4988279;28;20194;-61
2022/08/02 05:42:39;;;;;;;2.60;1.40;;;;;;;19.52;78.53;98887.50;4989496;28;20212;-60
2022/08/02 05:45:07;;;;;;;2.17;1.23;;;;;;;19.61;77.84;98888.94;4993134;28;20192;-60
2022/08/02 05:47:34;;;;;;;2.43;1.40;;;;;;;19.70;77.42;98894.03;4990739;28;20311;-60
2022/08/02 05:50:01;;;;;;;1.40;1.30;;;;;;;19.70;77.98;98894.84;4990156;28;20214;-60
2022/08/02 05:52:40;;;;;;;1.37;1.20;;;;;;;19.72;78.18;98902.59;4989579;28;20285;-60
2022/08/02 05:55:11;;;;;;;2.93;1.17;;;;;;;19.70;78.21;98897.47;4990179;28;20250;-60
2022/08/02 05:57:46;;;;;;;3.40;1.37;;;;;;;19.70;78.33;98904.63;4991768;28;20206;-60
2022/08/02 06:00:14;;;;;;;2.97;1.43;;;;;;;19.65;78.20;98905.22;4989965;28;20199;-60
2022/08/02 06:03:02;;;;;;;4.93;1.30;;;;;;;19.59;78.35;98908.72;4987060;28;20199;-60
2022/08/02 06:05:34;;;;;;;3.87;1.87;;;;;;;19.54;77.21;98914.59;4988304;28;20216;-60
2022/08/02 06:08:02;;;;;;;4.10;1.70;;;;;;;19.53;78.28;98923.56;4989921;28;20226;-60
2022/08/02 06:10:30;;;;;;;21.67;3.00;;;;;;;19.44;77.15;98916.81;4989831;28;20639;-60
2022/08/02 06:13:07;;;;;;;5.63;1.87;;;;;;;19.46;77.43;98912.13;5005931;28;20201;-60
2022/08/02 06:15:34;;;;;;;5.13;1.80;;;;;;;19.54;76.95;98919.88;4992316;28;20182;-60
2022/08/02 06:18:02;;;;;;;7.23;1.60;;;;;;;19.55;77.00;98918.06;4993343;28;20189;-60
2022/08/02 06:20:34;;;;;;;4.67;1.63;;;;;;;19.57;76.93;98918.69;4994717;28;20209;-60
2022/08/02 06:23:04;;;;;;;5.23;1.70;;;;;;;19.61;76.20;98926.00;4991912;28;20301;-60
2022/08/02 06:25:32;;;;;;;2.17;1.90;;;;;;;19.59;76.32;98928.03;4989334;28;20208;-60
2022/08/02 06:28:01;;;;;;;2.87;1.87;;;;;;;19.60;76.58;98928.88;4991474;28;20204;-60
2022/08/02 06:30:28;;;;;;;5.23;2.20;;;;;;;19.65;76.76;98941.50;4989083;28;20250;-60
2022/08/02 06:32:55;;;;;;;3.83;1.90;;;;;;;19.85;76.40;98939.66;4992474;28;20211;-60
2022/08/02 06:35:25;;;;;;;3.47;1.80;;;;;;;19.99;76.54;98934.41;4997129;28;21134;-60
2022/08/02 06:37:58;;;;;;;3.83;1.80;;;;;;;20.16;75.74;98930.28;4990739;28;20209;-60
2022/08/02 06:40:31;;;;;;;2.73;1.90;;;;;;;20.32;75.05;98925.56;4991141;28;20205;-60
2022/08/02 06:43:06;;;;;;;5.83;1.67;;;;;;;20.42;74.75;98928.63;4989795;28;20269;-60
2022/08/02 06:45:34;;;;;;;3.50;2.00;;;;;;;20.57;73.69;98931.03;4991702;28;20204;-60
2022/08/02 06:48:01;;;;;;;3.37;2.10;;;;;;;20.67;72.63;98935.09;5001385;28;20646;-60
2022/08/02 06:50:28;;;;;;;4.37;2.70;;;;;;;20.71;72.64;98933.63;4996501;28;20201;-61
2022/08/02 06:52:55;;;;;;;3.17;1.77;;;;;;;20.89;71.55;98930.34;4995644;28;20209;-61
2022/08/02 06:55:22;;;;;;;5.40;1.70;;;;;;;20.97;69.75;98938.06;4992776;28;20218;-60
2022/08/02 06:57:50;;;;;;;3.07;2.00;;;;;;;21.15;69.30;98944.53;4997890;28;20277;-60
2022/08/02 07:00:17;;;;;;;3.33;1.80;;;;;;;21.30;68.32;98950.31;4998740;28;20250;-60
2022/08/02 07:02:44;;;;;;;7.97;2.03;;;;;;;21.37;67.49;98945.78;4995049;28;20194;-60
2022/08/02 07:05:11;;;;;;;2.80;1.70;;;;;;;21.52;66.20;98942.88;4996034;28;20253;-60
2022/08/02 07:07:38;;;;;;;3.30;1.97;;;;;;;21.59;66.17;98944.66;4996609;28;20227;-60
2022/08/02 07:10:05;;;;;;;4.73;2.30;;;;;;;21.72;65.54;98944.59;4994066;28;20218;-60
2022/08/02 07:12:33;;;;;;;2.13;1.70;;;;;;;21.87;65.30;98940.78;4998346;28;20238;-60
2022/08/02 07:15:04;;;;;;;3.33;1.90;;;;;;;22.08;64.15;98950.22;4996736;28;20222;-60
2022/08/02 07:17:31;;;;;;;3.77;2.10;;;;;;;22.23;63.82;98942.72;4990807;28;20187;-60
2022/08/02 07:19:58;;;;;;;3.03;1.70;;;;;;;22.47;63.83;98944.78;4998373;28;20764;-60
2022/08/02 07:22:27;;;;;;;2.53;1.80;;;;;;;22.49;62.53;98950.69;4991766;28;20202;-60
2022/08/02 07:24:54;;;;;;;3.37;1.70;;;;;;;22.50;62.24;98947.78;4997209;28;20728;-60
2022/08/02 07:27:22;;;;;;;5.10;2.07;;;;;;;22.46;62.21;98948.47;4993780;28;20201;-60
2022/08/02 07:29:49;;;;;;;2.80;1.70;;;;;;;22.64;62.41;98950.31;4997331;28;20215;-61
2022/08/02 07:32:17;;;;;;;5.23;1.90;;;;;;;22.83;61.60;98953.75;4994297;28;20282;-61
2022/08/02 07:34:44;;;;;;;2.00;1.63;;;;;;;23.00;61.12;98951.31;4998410;28;20721;-61
2022/08/02 07:37:11;;;;;;;5.13;1.73;;;;;;;23.17;59.98;98954.16;4991350;28;20195;-61
2022/08/02 07:39:38;;;;;;;3.63;1.50;;;;;;;22.96;58.42;98948.28;4992273;28;20227;-62
2022/08/02 07:42:07;;;;;;;3.70;1.50;;;;;;;22.95;59.24;98945.84;4994910;28;20809;-61
2022/08/02 07:44:34;;;;;;;4.67;1.93;;;;;;;22.97;60.67;98954.44;4991951;28;20669;-61
2022/08/02 07:47:01;;;;;;;6.13;2.30;;;;;;;23.11;59.98;98955.06;4997458;28;20185;-61
2022/08/02 07:49:30;;;;;;;2.57;1.73;;;;;;;23.08;59.19;98951.00;4996238;28;20744;-61
2022/08/02 07:51:57;;;;;;;3.80;1.60;;;;;;;23.08;59.23;98950.19;4995002;28;20208;-61
2022/08/02 07:54:25;;;;;;;4.00;1.60;;;;;;;23.42;58.98;98939.91;4996274;28;20608;-61
2022/08/02 07:56:53;;;;;;;4.67;1.70;;;;;;;23.57;58.64;98942.16;4994269;28;20258;-61
2022/08/02 07:59:20;;;;;;;2.73;1.70;;;;;;;23.32;58.42;98934.31;4994887;28;20231;-61
2022/08/02 08:01:48;;;;;;;2.87;1.70;;;;;;;23.23;58.61;98931.97;4992829;28;20209;-61
2022/08/02 08:04:15;;;;;;;1.63;1.53;;;;;;;23.16;60.07;98939.22;4989520;28;20197;-61
2022/08/02 08:06:43;;;;;;;3.53;1.50;;;;;;;23.21;59.64;98938.56;4991816;28;20204;-61
2022/08/02 08:09:10;;;;;;;7.23;2.07;;;;;;;23.28;59.86;98939.31;4995279;28;20588;-61
2022/08/02 08:11:37;;;;;;;2.87;1.73;;;;;;;23.37;59.09;98931.78;4999229;28;20630;-61
2022/08/02 08:14:05;;;;;;;3.60;1.87;;;;;;;23.42;59.02;98924.72;4999716;28;20222;-61
2022/08/02 08:16:32;;;;;;;1.53;1.40;;;;;;;23.48;58.31;98927.53;4999667;28;20223;-62
2022/08/02 08:18:59;;;;;;;4.20;1.70;;;;;;;23.46;57.00;98926.94;4998370;28;20247;-62
2022/08/02 08:21:26;;;;;;;2.87;1.60;;;;;;;23.35;57.87;98924.03;4997949;28;20197;-60
2022/08/02 08:23:54;;;;;;;3.80;1.70;;;;;;;23.44;58.86;98932.50;5000229;28;20199;-60
2022/08/02 08:26:20;;;;;;;4.77;1.77;;;;;;;23.40;58.43;98926.81;4998551;28;20200;-60
2022/08/02 08:28:47;;;;;;;7.70;1.53;;;;;;;23.48;57.65;98923.03;4990858;28;20218;-61
2022/08/02 08:31:14;;;;;;;4.83;1.90;;;;;;;23.43;57.85;98934.34;4992042;28;20205;-63
2022/08/02 08:33:41;;;;;;;3.87;1.97;;;;;;;23.47;58.83;98933.91;4992763;28;20678;-59
2022/08/02 08:36:08;;;;;;;8.33;2.17;;;;;;;23.51;58.49;98932.41;4991564;28;20233;-60
2022/08/02 08:38:34;;;;;;;2.70;1.90;;;;;;;23.57;57.92;98926.16;4992891;28;20576;-60
2022/08/02 08:41:03;;;;;;;2.90;1.87;;;;;;;23.59;57.81;98921.41;4993095;28;20194;-61
2022/08/02 08:43:29;;;;;;;5.57;2.00;;;;;;;23.57;57.50;98913.66;4989332;28;20240;-61
2022/08/02 08:45:56;;;;;;;5.30;2.47;;;;;;;23.56;57.42;98917.38;4996249;28;20223;-61
2022/08/02 08:48:24;;;;;;;6.20;2.50;;;;;;;23.61;57.25;98916.66;4996272;28;20239;-61
2022/08/02 08:51:00;;;;;;;3.83;2.23;;;;;;;23.74;57.73;98913.78;4994704;28;20215;-61
2022/08/02 08:53:31;;;;;;;2.87;2.10;;;;;;;23.87;57.05;98925.28;4989471;28;20318;-61
2022/08/02 08:56:00;;;;;;;2.63;1.70;;;;;;;23.97;57.06;98914.84;4991814;28;20232;-62
2022/08/02 08:58:28;;;;;;;2.63;2.20;;;;;;;24.08;56.15;98923.13;4996117;28;20246;-62
2022/08/02 09:00:55;;;;;;;5.85;2.60;;;;;;;24.03;54.94;98918.47;4993265;28;20909;-62
2022/08/02 09:03:21;;;;;;;2.83;2.27;;;;;;;24.08;55.79;98920.44;4991273;28;20213;-62
2022/08/02 09:05:48;;;;;;;7.93;2.60;;;;;;;24.07;56.31;98914.28;4999017;28;20206;-59
2022/08/02 09:08:15;;;;;;;3.07;2.60;;;;;;;23.99;57.06;98902.13;4993719;28;20222;-59
2022/08/02 09:10:43;;;;;;;6.23;2.53;;;;;;;24.17;55.46;98908.38;4991740;28;20206;-59
2022/08/02 09:13:15;;;;;;;4.50;2.23;;;;;;;24.11;55.62;98901.31;4972719;28;20202;-59
2022/08/02 09:15:46;;;;;;;4.57;2.57;;;;;;;24.31;55.32;98903.59;4989311;28;20585;-59
2022/08/02 09:18:13;;;;;;;4.30;2.20;;;;;;;24.39;55.72;98897.91;4990486;28;20215;-59
2022/08/02 09:20:54;;;;;;;3.53;2.30;;;;;;;24.63;54.92;98897.88;4994833;28;20194;-59
2022/08/02 09:23:21;;;;;;;2.53;2.23;;;;;;;24.81;53.85;98910.25;4989089;28;20213;-59
2022/08/02 09:25:59;;;;;;;4.97;2.83;;;;;;;24.82;53.81;98914.53;4989634;28;20209;-59
2022/08/02 09:28:28;;;;;;;4.63;2.57;;;;;;;24.82;53.95;98917.22;4990552;28;20217;-60
2022/08/02 09:31:02;;;;;;;5.43;2.50;;;;;;;24.96;53.23;98917.72;4994613;28;20221;-61
2022/08/02 09:33:29;;;;;;;3.00;2.30;;;;;;;24.95;53.75;98926.00;4988359;28;20197;-60
2022/08/02 09:36:01;;;;;;;4.30;2.77;;;;;;;25.04;53.05;98929.91;4989453;28;20223;-59
2022/08/02 09:38:28;;;;;;;3.43;2.30;;;;;;;25.15;53.03;98930.88;4994319;28;20311;-59
2022/08/02 09:40:55;;;;;;;9.27;3.00;;;;;;;25.23;52.07;98927.03;4989187;28;20210;-59
2022/08/02 09:43:22;;;;;;;8.57;3.10;;;;;;;25.20;52.27;98922.97;4988820;28;20595;-59
2022/08/02 09:45:49;;;;;;;5.87;3.23;;;;;;;25.27;51.53;98917.50;4988752;28;20198;-60
2022/08/02 09:48:18;;;;;;;4.33;2.70;;;;;;;25.33;51.50;98914.66;4988176;28;20217;-60
2022/08/02 09:51:03;;;;;;;4.90;2.93;;;;;;;25.38;51.42;98910.47;4989218;28;20680;-59
2022/08/02 09:53:30;;;;;;;5.20;3.63;;;;;;;25.47;50.91;98915.19;4990824;28;20213;-59
2022/08/02 09:56:17;;;;;;;7.80;3.40;;;;;;;25.65;50.30;98918.66;4991908;28;20349;-59
2022/08/02 09:58:44;;;;;;;4.63;3.20;;;;;;;25.67;50.46;98915.78;4989555;28;20782;-60
2022/08/02 10:01:11;;;;;;;5.77;3.73;;;;;;;25.75;50.09;98912.69;4993746;28;20194;-60
2022/08/02 10:03:53;;;;;;;11.17;3.70;;;;;;;25.65;50.58;98913.31;4995321;28;20696;-60
2022/08/02 10:06:21;;;;;;;11.17;2.80;;;;;;;25.86;51.12;98898.44;4991214;28;20192;-59
2022/08/02 10:08:48;;;;;;;6.07;3.53;;;;;;;25.94;48.80;98902.53;4990851;28;20234;-59
2022/08/02 10:11:14;;;;;;;5.63;3.40;;;;;;;25.90;48.89;98896.88;4987192;28;20205;-60
2022/08/02 10:13:42;;;;;;;3.57;3.03;;;;;;;25.81;48.62;98897.53;4990071;28;20203;-60
2022/08/02 10:16:10;;;;;;;9.30;3.30;;;;;;;26.05;49.67;98895.47;4988738;28;20716;-59
2022/08/02 10:18:37;;;;;;;3.07;2.70;;;;;;;26.47;48.82;98888.81;5004107;28;20209;-60
2022/08/02 10:21:10;;;;;;;4.03;2.90;;;;;;;26.94;47.04;98893.66;4989756;28;20206;-59
2022/08/02 10:23:39;;;;;;;4.03;3.30;;;;;;;27.08;46.16;98901.28;4987905;28;20668;-60
2022/08/02 10:26:07;;;;;;;3.72;3.28;;;;;;;27.02;46.43;98899.63;4988672;28;20202;-60
2022/08/02 10:28:34;;;;;;;5.13;3.10;;;;;;;26.92;46.33;98903.00;4988312;28;20218;-60
2022/08/02 10:31:04;;;;;;;4.50;3.23;;;;;;;26.88;46.88;98886.63;4989433;28;20208;-59
2022/08/02 10:33:35;;;;;;;7.27;3.73;;;;;;;26.89;46.85;98890.13;4991221;28;20562;-60
2022/08/02 10:36:04;;;;;;;5.27;3.60;;;;;;;26.93;46.77;98889.34;4988741;28;20239;-60
2022/08/02 10:38:32;;;;;;;5.87;3.20;;;;;;;27.13;47.42;98890.63;4994015;28;20724;-60
2022/08/02 10:40:59;;;;;;;3.43;3.13;;;;;;;27.43;45.73;98883.91;4990439;28;20197;-60
2022/08/02 10:43:44;;;;;;;4.32;2.97;;;;;;;27.37;45.99;98882.25;4990900;28;20285;-60
2022/08/02 10:46:24;;;;;;;6.68;3.35;;;;;;;27.19;45.83;98886.94;4991124;28;20194;-60
2022/08/02 10:49:09;;;;;;;3.70;3.38;;;;;;;27.15;46.17;98879.63;4974712;28;20229;-59
2022/08/02 10:52:11;;;;;;;3.97;3.60;;;;;;;27.00;46.43;98880.31;4989664;28;20201;-59
2022/08/02 10:54:41;;;;;;;4.10;3.40;;;;;;;27.02;46.74;98868.28;4984173;28;20603;-59
2022/08/02 10:57:19;;;;;;;4.77;3.57;;;;;;;27.02;46.67;98870.16;4991560;28;20200;-60
2022/08/02 10:59:47;;;;;;;5.97;3.70;;;;;;;27.08;45.94;98866.47;5005501;28;20227;-60
2022/08/02 11:02:33;;;;;;;4.63;3.30;;;;;;;27.21;46.38;98865.22;4991119;28;20197;-59
2022/08/02 11:05:02;;;;;;;5.03;3.20;;;;;;;27.59;45.74;98866.09;4989225;28;20186;-60
2022/08/02 11:07:35;;;;;;;3.75;3.45;;;;;;;27.60;44.31;98866.88;4994592;28;20189;-60
2022/08/02 11:10:29;;;;;;;3.83;3.10;;;;;;;27.83;43.32;98858.47;4991642;28;20319;-60
2022/08/02 11:13:01;;;;;;;3.60;3.30;;;;;;;27.85;44.32;98859.00;4991631;28;20221;-59
2022/08/02 11:15:29;;;;;;;7.28;3.42;;;;;;;28.10;43.11;98868.28;4990428;28;20237;-60
2022/08/02 11:17:57;;;;;;;4.90;3.30;;;;;;;27.99;42.54;98854.00;4988825;28;20199;-60
2022/08/02 11:20:25;;;;;;;4.65;3.08;;;;;;;28.04;42.86;98855.09;4990432;28;20240;-60
2022/08/02 11:22:54;;;;;;;6.63;3.40;;;;;;;27.93;43.91;98856.91;4991004;28;20198;-60
2022/08/02 11:25:33;;;;;;;7.78;3.97;;;;;;;27.95;43.16;98858.28;4988618;28;20201;-60
2022/08/02 11:28:08;;;;;;;6.27;3.77;;;;;;;27.85;44.25;98861.69;4989064;28;20783;-60
2022/08/02 11:30:36;;;;;;;4.45;3.42;;;;;;;27.95;43.76;98852.91;4990082;28;20213;-60
2022/08/02 11:33:03;;;;;;;5.55;3.17;;;;;;;28.34;42.75;98857.16;4991857;28;20192;-60
2022/08/02 11:35:37;;;;;;;4.57;3.42;;;;;;;28.38;42.95;98858.25;4992051;28;20210;-60
2022/08/02 11:38:15;;;;;;;6.97;3.70;;;;;;;28.52;42.30;98849.69;4995337;28;20226;-60
2022/08/02 11:40:45;;;;;;;5.30;3.55;;;;;;;28.52;41.54;98847.00;4991865;28;20204;-60
2022/08/02 11:43:19;;;;;;;5.47;3.50;;;;;;;28.48;41.44;98851.28;4991947;28;20202;-60
2022/08/02 11:45:47;;;;;;;7.88;3.85;;;;;;;28.33;42.35;98852.84;4991625;28;20198;-60
2022/08/02 11:48:13;;;;;;;4.75;3.47;;;;;;;28.41;41.90;98836.22;4990944;28;20695;-60